ESOE/ORB METAR and TAF weather

Enter ICAO airport designator
Station Type Date Time Source
ESOE METAR 2022/01/27 23:20 UTC NOAA

ESOE 272320Z AUTO 33011KT 9999 FEW140/// 02/M01 Q1000


Station Type Date Time Source
ESOE Decoded METAR 2022/01/27 23:20 UTC NOAA

Orebro Private , Sweden (ESOE) 59-14N 015-03E
Jan 27, 2022 - 06:20 PM EST / 2022.01.27 2320 UTC
Wind: from the NNW (330 degrees) at 13 MPH (11 KT):0
Visibility: greater than 7 mile(s):0
Sky conditions: mostly clear
Temperature: 35 F (2 C)
Windchill: 26 F (-3 C):1
Dew Point: 30 F (-1 C)
Relative Humidity: 80%
Pressure (altimeter): 29.53 in. Hg (1000 hPa)
ob: ESOE 272320Z AUTO 33011KT 9999 FEW140/// 02/M01 Q1000
cycle: 23

Station Type Date Time Source
ESOE TAF 2016/03/16 04:36 UTC NOAA

TAF TAF ESOE 160330Z 1604/1624 23005KT 9000 BR NSC PROB40 1604/1607 1200 BR

Example: see airport list